createdAt,value
2024-02-18T00:01:38.523Z,72.26
2024-02-18T00:04:06.685Z,72.59
2024-02-18T00:06:36.325Z,72.31
2024-02-18T00:09:04.555Z,72.17
2024-02-18T00:11:32.367Z,72.34
2024-02-18T00:14:00.173Z,72.22
2024-02-18T00:16:28.013Z,71.98
2024-02-18T00:18:55.836Z,72.29
2024-02-18T00:21:23.881Z,72.05
2024-02-18T00:23:53.152Z,72.12
2024-02-18T00:26:30.128Z,72.08
2024-02-18T00:29:08.305Z,72.15
2024-02-18T00:31:36.710Z,72.18
2024-02-18T00:34:04.738Z,72.35
2024-02-18T00:36:32.517Z,72.34
2024-02-18T00:39:01.647Z,71.95
2024-02-18T00:41:29.406Z,72.20
2024-02-18T00:43:57.141Z,72.43
2024-02-18T00:46:37.819Z,72.25
2024-02-18T00:49:12.580Z,72.29
2024-02-18T00:51:40.528Z,71.97
2024-02-18T00:54:09.765Z,71.94
2024-02-18T00:56:37.509Z,72.29
2024-02-18T00:59:05.240Z,71.96
2024-02-18T01:01:33.123Z,71.93
2024-02-18T01:04:01.076Z,71.99
2024-02-18T01:06:28.992Z,72.06
2024-02-18T01:08:56.831Z,72.14
2024-02-18T01:11:26.157Z,71.89
2024-02-18T01:13:54.064Z,72.00
2024-02-18T01:16:21.804Z,71.99
2024-02-18T01:18:50.970Z,72.02
2024-02-18T01:21:19.676Z,72.30
2024-02-18T01:23:47.646Z,72.08
2024-02-18T01:26:15.419Z,71.65
2024-02-18T01:28:44.534Z,71.58
2024-02-18T01:31:12.356Z,71.89
2024-02-18T01:33:40.245Z,71.80
2024-02-18T01:36:08.197Z,71.88
2024-02-18T01:38:36.286Z,71.69
2024-02-18T01:41:04.076Z,72.13
2024-02-18T01:43:31.905Z,72.08
2024-02-18T01:46:01.624Z,71.76
2024-02-18T01:48:30.175Z,72.07
2024-02-18T01:50:58.130Z,71.74
2024-02-18T01:53:26.104Z,71.96
2024-02-18T01:55:53.986Z,71.97
2024-02-18T01:58:22.045Z,71.70
2024-02-18T02:00:50.851Z,72.10
2024-02-18T02:03:20.699Z,71.86
2024-02-18T02:05:49.323Z,72.12
2024-02-18T02:08:17.450Z,72.14
2024-02-18T02:10:45.784Z,71.93
2024-02-18T02:13:13.704Z,72.11
2024-02-18T02:15:42.010Z,72.08
2024-02-18T02:18:09.935Z,71.91
2024-02-18T02:20:39.143Z,71.75
2024-02-18T02:23:07.148Z,71.92
2024-02-18T02:25:36.522Z,72.02
2024-02-18T02:28:22.501Z,72.02
2024-02-18T02:30:52.145Z,71.72
2024-02-18T02:33:21.204Z,71.88
2024-02-18T02:35:49.361Z,71.53
2024-02-18T02:38:17.156Z,71.99
2024-02-18T02:40:44.941Z,71.76
2024-02-18T02:43:13.789Z,71.79
2024-02-18T02:45:41.766Z,71.98
2024-02-18T02:48:10.973Z,71.85
2024-02-18T02:50:39.404Z,71.85
2024-02-18T02:53:07.745Z,72.14
2024-02-18T02:55:35.553Z,71.73
2024-02-18T02:58:03.490Z,71.77
2024-02-18T03:00:32.458Z,71.89
2024-02-18T03:03:00.273Z,71.84
2024-02-18T03:05:29.402Z,71.76
2024-02-18T03:07:57.185Z,72.29
2024-02-18T03:10:25.009Z,72.11
2024-02-18T03:12:52.840Z,71.75
2024-02-18T03:15:20.872Z,71.93
2024-02-18T03:17:48.749Z,71.85
2024-02-18T03:20:17.030Z,71.69
2024-02-18T03:22:46.244Z,71.80
2024-02-18T03:25:15.204Z,71.84
2024-02-18T03:27:43.291Z,71.60
2024-02-18T03:30:11.903Z,71.84
2024-02-18T03:32:39.917Z,71.80
2024-02-18T03:35:09.109Z,71.53
2024-02-18T03:37:37.008Z,71.81
2024-02-18T03:40:07.709Z,71.60
2024-02-18T03:42:35.673Z,71.45
2024-02-18T03:45:03.516Z,71.35
2024-02-18T03:47:31.351Z,71.48
2024-02-18T03:49:59.331Z,71.58
2024-02-18T03:52:27.232Z,71.40
2024-02-18T03:54:54.979Z,71.69
2024-02-18T03:57:24.157Z,71.54
2024-02-18T03:59:51.890Z,70.83
2024-02-18T04:02:19.641Z,71.33
2024-02-18T04:04:47.386Z,71.43
2024-02-18T04:07:15.318Z,71.50
2024-02-18T04:09:43.130Z,71.62
2024-02-18T04:12:10.965Z,71.34
2024-02-18T04:14:40.098Z,71.63
2024-02-18T04:17:08.183Z,71.59
2024-02-18T04:19:36.117Z,71.34
2024-02-18T04:22:04.039Z,71.34
2024-02-18T04:24:31.863Z,71.82
2024-02-18T04:26:59.649Z,71.40
2024-02-18T04:29:28.250Z,71.58
2024-02-18T04:31:57.373Z,71.43
2024-02-18T04:34:25.190Z,71.72
2024-02-18T04:36:52.980Z,71.63
2024-02-18T04:39:20.904Z,71.84
2024-02-18T04:41:48.787Z,71.62
2024-02-18T04:44:17.055Z,71.68
2024-02-18T04:46:44.841Z,71.59
2024-02-18T04:49:15.307Z,71.92
2024-02-18T04:51:43.220Z,71.76
2024-02-18T04:54:11.063Z,71.77
2024-02-18T04:56:38.789Z,71.60
2024-02-18T04:59:06.576Z,71.71
2024-02-18T05:01:34.506Z,71.71
2024-02-18T05:04:02.431Z,71.63
2024-02-18T05:06:31.627Z,71.92
2024-02-18T05:08:59.425Z,71.63
2024-02-18T05:11:27.300Z,71.82
2024-02-18T05:13:55.102Z,71.73
2024-02-18T05:16:22.942Z,71.78
2024-02-18T05:18:50.788Z,72.01
2024-02-18T05:21:18.847Z,71.92
2024-02-18T05:23:47.999Z,71.95
2024-02-18T05:26:16.318Z,72.03
2024-02-18T05:28:44.122Z,72.03
2024-02-18T05:31:23.407Z,71.82
2024-02-18T05:33:51.507Z,72.15
2024-02-18T05:36:20.843Z,72.23
2024-02-18T05:38:50.296Z,71.97
2024-02-18T05:41:18.721Z,72.11
2024-02-18T05:43:47.042Z,71.98
2024-02-18T05:46:14.870Z,71.72
2024-02-18T05:48:43.064Z,71.97
2024-02-18T05:51:10.928Z,71.93
2024-02-18T05:53:38.900Z,72.04
2024-02-18T05:56:08.824Z,71.85
2024-02-18T05:58:36.642Z,71.82
2024-02-18T06:01:04.648Z,71.78
2024-02-18T06:03:32.617Z,71.74
2024-02-18T06:06:00.572Z,71.39
2024-02-18T06:08:28.545Z,71.59
2024-02-18T06:10:56.502Z,71.66
2024-02-18T06:13:25.805Z,71.58
2024-02-18T06:15:53.664Z,71.51
2024-02-18T06:18:21.622Z,71.55
2024-02-18T06:20:49.471Z,71.31
2024-02-18T06:23:17.295Z,71.38
2024-02-18T06:25:45.082Z,71.27
2024-02-18T06:28:13.308Z,71.16
2024-02-18T06:30:42.538Z,71.44
2024-02-18T06:33:10.751Z,71.58
2024-02-18T06:35:38.914Z,71.11
2024-02-18T06:38:06.765Z,70.96
2024-02-18T06:40:34.521Z,70.59
2024-02-18T06:43:02.322Z,70.48
2024-02-18T06:45:30.185Z,70.97
2024-02-18T06:47:59.397Z,70.88
2024-02-18T06:50:27.293Z,70.95
2024-02-18T06:52:54.145Z,71.00
2024-02-18T06:55:21.967Z,71.25
2024-02-18T06:57:49.888Z,70.96
2024-02-18T07:00:18.553Z,71.12
2024-02-18T07:02:46.309Z,70.87
2024-02-18T07:05:15.485Z,70.96
2024-02-18T07:07:43.212Z,71.20
2024-02-18T07:10:11.199Z,70.88
2024-02-18T07:12:39.012Z,70.90
2024-02-18T07:15:07.770Z,70.96
2024-02-18T07:17:35.611Z,71.11
2024-02-18T07:20:04.560Z,71.13
2024-02-18T07:22:34.103Z,71.18
2024-02-18T07:25:02.189Z,70.67
2024-02-18T07:27:29.970Z,69.34
2024-02-18T07:29:57.990Z,69.66
2024-02-18T07:32:25.940Z,70.09
2024-02-18T07:34:54.046Z,70.88
2024-02-18T07:37:21.926Z,70.97
2024-02-18T07:39:51.507Z,72.18
2024-02-18T07:42:19.565Z,70.56
2024-02-18T07:44:48.201Z,69.68
2024-02-18T07:47:16.021Z,69.58
2024-02-18T07:49:44.289Z,70.27
2024-02-18T07:52:12.160Z,70.13
2024-02-18T07:54:40.068Z,70.98
2024-02-18T07:57:09.232Z,71.19
2024-02-18T07:59:37.458Z,71.05
2024-02-18T08:02:05.732Z,71.14
2024-02-18T08:04:33.678Z,70.74
2024-02-18T08:07:01.658Z,71.26
2024-02-18T08:09:29.705Z,71.23
2024-02-18T08:11:57.517Z,71.24
2024-02-18T08:14:26.648Z,72.11
2024-02-18T08:16:56.256Z,71.92
2024-02-18T08:19:24.297Z,71.71
2024-02-18T08:21:53.038Z,71.51
2024-02-18T08:24:21.005Z,71.54
2024-02-18T08:26:48.745Z,71.57
2024-02-18T08:29:16.491Z,71.35
2024-02-18T08:31:45.594Z,71.15
2024-02-18T08:34:13.617Z,71.75
2024-02-18T08:36:41.534Z,71.74
2024-02-18T08:39:09.365Z,71.55
2024-02-18T08:41:37.126Z,71.42
2024-02-18T08:44:05.007Z,70.88
2024-02-18T08:46:34.148Z,69.32
2024-02-18T08:49:04.764Z,68.97
2024-02-18T08:51:32.652Z,68.86
2024-02-18T08:54:00.496Z,68.27
2024-02-18T08:56:28.278Z,68.03
2024-02-18T08:58:56.036Z,67.78
2024-02-18T09:01:23.995Z,67.53
2024-02-18T09:03:51.985Z,67.84
2024-02-18T09:06:21.348Z,69.17
2024-02-18T09:08:49.404Z,70.19
2024-02-18T09:11:17.540Z,69.36
2024-02-18T09:13:45.366Z,69.45
2024-02-18T09:16:13.256Z,69.62
2024-02-18T09:18:41.324Z,71.11
2024-02-18T09:21:09.164Z,69.84
2024-02-18T09:23:38.297Z,69.62
2024-02-18T09:26:06.308Z,71.32
2024-02-18T09:28:35.112Z,70.13
2024-02-18T09:31:03.549Z,71.03
2024-02-18T09:33:31.677Z,71.11
2024-02-18T09:35:59.624Z,70.70
2024-02-18T09:38:27.364Z,71.66
2024-02-18T09:40:56.596Z,70.76
2024-02-18T09:43:28.007Z,71.39
2024-02-18T09:45:57.418Z,71.10
2024-02-18T09:48:26.058Z,71.90
2024-02-18T09:50:54.740Z,71.43
2024-02-18T09:53:22.733Z,71.01
2024-02-18T09:55:51.208Z,70.31
2024-02-18T09:58:20.935Z,70.58
2024-02-18T10:00:48.963Z,70.25
2024-02-18T10:03:16.912Z,69.45
2024-02-18T10:05:44.748Z,69.46
2024-02-18T10:08:12.528Z,68.97
2024-02-18T10:10:40.304Z,68.32
2024-02-18T10:13:10.193Z,67.94
2024-02-18T10:15:39.429Z,67.80
2024-02-18T10:18:08.928Z,67.54
2024-02-18T10:20:36.879Z,67.03
2024-02-18T10:23:05.354Z,67.08
2024-02-18T10:25:33.362Z,66.67
2024-02-18T10:28:01.262Z,66.64
2024-02-18T10:30:29.403Z,66.82
2024-02-18T10:32:58.725Z,66.69
2024-02-18T10:35:26.835Z,66.36
2024-02-18T10:37:58.411Z,66.59
2024-02-18T10:40:33.356Z,66.56
2024-02-18T10:43:02.480Z,67.15
2024-02-18T10:45:30.584Z,67.19
2024-02-18T10:48:02.408Z,67.82
2024-02-18T10:50:36.013Z,68.14
2024-02-18T10:53:17.535Z,68.43
2024-02-18T10:55:50.638Z,68.80
2024-02-18T10:58:24.594Z,69.13
2024-02-18T11:00:56.675Z,69.30
2024-02-18T11:03:34.794Z,69.47
2024-02-18T11:06:05.045Z,69.06
2024-02-18T11:08:35.183Z,69.52
2024-02-18T11:11:04.162Z,70.12
2024-02-18T11:13:35.797Z,69.80
2024-02-18T11:16:04.234Z,69.64
2024-02-18T11:18:34.405Z,70.24
2024-02-18T11:21:02.760Z,69.47
2024-02-18T11:23:33.703Z,69.01
2024-02-18T11:26:02.368Z,70.07
2024-02-18T11:28:33.406Z,68.21
2024-02-18T11:31:01.260Z,67.54
2024-02-18T11:33:35.342Z,67.73
2024-02-18T11:36:14.333Z,67.47
2024-02-18T11:38:46.598Z,65.94
2024-02-18T11:41:19.452Z,65.96
2024-02-18T11:43:53.321Z,65.50
2024-02-18T11:46:22.221Z,66.64
2024-02-18T11:48:51.665Z,66.49
2024-02-18T11:51:19.518Z,67.58
2024-02-18T11:53:47.423Z,67.73
2024-02-18T11:56:16.031Z,68.50
2024-02-18T11:58:45.845Z,68.79
2024-02-18T12:01:16.739Z,68.50
2024-02-18T12:03:47.785Z,69.30
2024-02-18T12:06:17.529Z,67.92
2024-02-18T12:08:45.466Z,69.82
2024-02-18T12:11:13.324Z,68.46
2024-02-18T12:13:41.183Z,68.71
2024-02-18T12:16:09.462Z,71.00
2024-02-18T12:18:37.577Z,69.45
2024-02-18T12:21:05.686Z,69.52
2024-02-18T12:23:41.712Z,69.09
2024-02-18T12:26:09.540Z,68.75
2024-02-18T12:28:37.302Z,69.93
2024-02-18T12:31:05.639Z,69.62
2024-02-18T12:33:34.898Z,69.49
2024-02-18T12:36:02.914Z,69.74
2024-02-18T12:38:30.785Z,70.09
2024-02-18T12:41:00.013Z,70.04
2024-02-18T12:44:10.475Z,69.67
2024-02-18T12:46:17.368Z,69.49
2024-02-18T12:48:45.511Z,68.96
2024-02-18T12:51:14.598Z,68.35
2024-02-18T12:53:44.247Z,68.57
2024-02-18T12:56:13.905Z,68.39
2024-02-18T12:58:41.899Z,68.55
2024-02-18T13:01:11.338Z,68.91
2024-02-18T13:03:40.611Z,69.31
2024-02-18T13:06:11.499Z,69.18
2024-02-18T13:08:39.527Z,69.92
2024-02-18T13:11:07.356Z,70.13
2024-02-18T13:13:36.435Z,70.20
2024-02-18T13:16:04.641Z,70.40
2024-02-18T13:18:32.450Z,70.43
2024-02-18T13:21:01.918Z,70.90
2024-02-18T13:23:29.788Z,70.53
2024-02-18T13:25:57.612Z,71.18
2024-02-18T13:28:25.435Z,70.46
2024-02-18T13:30:54.945Z,70.85
2024-02-18T13:33:24.265Z,71.14
2024-02-18T13:35:52.361Z,71.04
2024-02-18T13:38:21.077Z,71.71
2024-02-18T13:40:48.877Z,71.12
2024-02-18T13:43:18.968Z,71.09
2024-02-18T13:45:47.383Z,71.22
2024-02-18T13:48:16.630Z,71.29
2024-02-18T13:50:44.482Z,71.29
2024-02-18T13:53:12.235Z,71.83
2024-02-18T13:55:40.039Z,72.41
2024-02-18T13:58:08.419Z,71.08
2024-02-18T14:00:36.280Z,71.55
2024-02-18T14:03:04.961Z,71.79
2024-02-18T14:05:34.535Z,72.08
2024-02-18T14:08:02.380Z,72.31
2024-02-18T14:10:30.150Z,71.50
2024-02-18T14:12:58.065Z,72.10
2024-02-18T14:15:27.491Z,72.27
2024-02-18T14:17:57.802Z,72.53
2024-02-18T14:20:26.582Z,72.64
2024-02-18T14:22:57.985Z,72.74
2024-02-18T14:25:25.800Z,72.94
2024-02-18T14:27:53.653Z,73.14
2024-02-18T14:30:22.486Z,72.95
2024-02-18T14:32:50.366Z,73.42
2024-02-18T14:35:18.225Z,73.30
2024-02-18T14:37:46.002Z,73.69
2024-02-18T14:40:15.722Z,74.01
2024-02-18T14:42:44.513Z,74.20
2024-02-18T14:45:14.366Z,74.39
2024-02-18T14:47:43.392Z,74.33
2024-02-18T14:50:12.009Z,74.90
2024-02-18T14:52:40.199Z,74.80
2024-02-18T14:55:09.165Z,74.71
2024-02-18T14:57:39.157Z,74.57
2024-02-18T15:00:10.983Z,74.62
2024-02-18T15:02:41.829Z,74.24
2024-02-18T15:05:12.150Z,74.44
2024-02-18T15:07:40.322Z,75.16
2024-02-18T15:10:09.624Z,74.90
2024-02-18T15:12:39.017Z,74.48
2024-02-18T15:15:07.868Z,74.90
2024-02-18T15:17:36.045Z,75.29
2024-02-18T15:20:07.437Z,75.79
2024-02-18T15:22:38.220Z,75.49
2024-02-18T15:25:07.297Z,75.92
2024-02-18T15:27:35.273Z,75.95
2024-02-18T15:30:05.124Z,75.84
2024-02-18T15:32:32.968Z,76.21
2024-02-18T15:35:00.906Z,76.20
2024-02-18T15:37:28.756Z,76.72
2024-02-18T15:39:56.526Z,76.79
2024-02-18T15:42:24.317Z,77.26
2024-02-18T15:44:52.129Z,77.17
2024-02-18T15:47:21.339Z,77.29
2024-02-18T15:49:49.849Z,77.14
2024-02-18T15:52:17.874Z,77.12
2024-02-18T15:54:45.871Z,77.00
2024-02-18T15:57:13.639Z,77.04
2024-02-18T15:59:41.397Z,76.93
2024-02-18T16:02:09.258Z,76.84
2024-02-18T16:04:38.624Z,76.85
2024-02-18T16:07:06.564Z,76.13
2024-02-18T16:09:34.402Z,76.24
2024-02-18T16:12:02.228Z,76.52
2024-02-18T16:14:29.981Z,76.25
2024-02-18T16:16:57.761Z,76.19
2024-02-18T16:19:25.603Z,76.44
2024-02-18T16:21:54.907Z,76.56
2024-02-18T16:24:22.965Z,76.82
2024-02-18T16:26:51.969Z,77.01
2024-02-18T16:29:19.749Z,77.33
2024-02-18T16:31:47.903Z,77.19
2024-02-18T16:34:15.953Z,76.76
2024-02-18T16:36:44.892Z,76.61
2024-02-18T16:39:15.102Z,76.33
2024-02-18T16:41:43.652Z,76.26
2024-02-18T16:44:11.434Z,76.17
2024-02-18T16:46:40.408Z,76.02
2024-02-18T16:49:09.243Z,75.71
2024-02-18T16:51:45.015Z,75.56
2024-02-18T16:54:14.758Z,74.91
2024-02-18T16:56:42.572Z,75.31
2024-02-18T16:59:10.306Z,74.83
2024-02-18T17:01:38.160Z,74.89
2024-02-18T17:04:09.218Z,75.01
2024-02-18T17:06:39.718Z,74.64
2024-02-18T17:09:07.672Z,75.05
2024-02-18T17:11:36.879Z,74.94
2024-02-18T17:14:05.498Z,74.76
2024-02-18T17:16:36.967Z,74.69
2024-02-18T17:19:07.392Z,74.78
2024-02-18T17:21:35.527Z,75.06
2024-02-18T17:24:04.497Z,74.67
2024-02-18T17:26:32.615Z,74.80
2024-02-18T17:29:01.918Z,74.86
2024-02-18T17:31:29.747Z,74.94
2024-02-18T17:33:57.776Z,74.54
2024-02-18T17:36:26.080Z,74.61
2024-02-18T17:38:53.926Z,74.92
2024-02-18T17:41:21.797Z,74.58
2024-02-18T17:43:49.670Z,74.31
2024-02-18T17:46:19.231Z,74.42
2024-02-18T17:48:47.361Z,73.98
2024-02-18T17:51:15.264Z,74.22
2024-02-18T17:53:43.121Z,73.97
2024-02-18T17:56:10.898Z,74.40
2024-02-18T17:58:38.845Z,74.06
2024-02-18T18:01:06.692Z,73.80
2024-02-18T18:03:35.951Z,74.08
2024-02-18T18:06:03.833Z,74.38
2024-02-18T18:08:31.612Z,74.00
2024-02-18T18:11:00.036Z,74.25
2024-02-18T18:13:28.190Z,74.32
2024-02-18T18:15:56.518Z,74.15
2024-02-18T18:18:24.418Z,74.37
2024-02-18T18:20:53.950Z,74.63
2024-02-18T18:23:24.085Z,74.61
2024-02-18T18:25:51.882Z,74.90
2024-02-18T18:28:19.758Z,74.93
2024-02-18T18:30:47.598Z,75.09
2024-02-18T18:33:15.468Z,75.08
2024-02-18T18:35:43.205Z,75.34
2024-02-18T18:38:12.357Z,75.20
2024-02-18T18:40:40.158Z,75.49
2024-02-18T18:43:10.435Z,75.20
2024-02-18T18:45:38.247Z,75.36
2024-02-18T18:48:07.202Z,75.78
2024-02-18T18:50:35.068Z,75.43
2024-02-18T18:53:02.806Z,75.44
2024-02-18T18:55:31.983Z,75.56
2024-02-18T18:58:00.615Z,75.56
2024-02-18T19:00:29.394Z,75.50
2024-02-18T19:02:57.442Z,75.89
2024-02-18T19:05:25.542Z,75.84
2024-02-18T19:07:53.445Z,75.85
2024-02-18T19:10:21.357Z,75.53
2024-02-18T19:12:50.615Z,75.61
2024-02-18T19:15:20.371Z,75.77
2024-02-18T19:17:49.074Z,75.56
2024-02-18T19:20:17.475Z,75.91
2024-02-18T19:22:45.377Z,75.79
2024-02-18T19:25:13.439Z,75.92
2024-02-18T19:27:41.347Z,76.06
2024-02-18T19:30:15.199Z,75.80
2024-02-18T19:32:43.138Z,76.12
2024-02-18T19:35:11.248Z,75.58
2024-02-18T19:37:41.507Z,75.61
2024-02-18T19:40:11.618Z,75.73
2024-02-18T19:42:39.427Z,75.37
2024-02-18T19:45:07.941Z,75.55
2024-02-18T19:47:37.089Z,75.32
2024-02-18T19:50:05.539Z,75.49
2024-02-18T19:52:33.310Z,75.61
2024-02-18T19:55:05.096Z,75.28
2024-02-18T19:57:32.930Z,75.70
2024-02-18T20:00:00.737Z,75.76
2024-02-18T20:02:28.488Z,75.51
2024-02-18T20:04:57.709Z,75.66
2024-02-18T20:07:25.941Z,75.28
2024-02-18T20:09:53.942Z,75.48
2024-02-18T20:12:21.707Z,75.17
2024-02-18T20:14:49.503Z,75.30
2024-02-18T20:17:17.416Z,75.04
2024-02-18T20:19:45.957Z,75.07
2024-02-18T20:22:15.290Z,75.07
2024-02-18T20:24:44.092Z,75.10
2024-02-18T20:27:11.997Z,75.28
2024-02-18T20:29:41.579Z,75.17
2024-02-18T20:32:09.874Z,75.31
2024-02-18T20:34:40.138Z,75.39
2024-02-18T20:37:08.753Z,75.16
2024-02-18T20:39:42.264Z,75.08
2024-02-18T20:42:10.462Z,75.13
2024-02-18T20:44:39.002Z,75.40
2024-02-18T20:47:08.156Z,75.42
2024-02-18T20:49:36.791Z,75.12
2024-02-18T20:52:07.293Z,75.26
2024-02-18T20:54:35.138Z,75.33
2024-02-18T20:57:04.390Z,75.61
2024-02-18T20:59:32.169Z,75.18
2024-02-18T21:02:00.030Z,75.16
2024-02-18T21:04:28.452Z,75.11
2024-02-18T21:06:56.420Z,75.09
2024-02-18T21:09:24.326Z,75.18
2024-02-18T21:11:52.047Z,75.08
2024-02-18T21:14:22.021Z,74.98
2024-02-18T21:16:53.001Z,75.05
2024-02-18T21:19:20.847Z,75.04
2024-02-18T21:21:49.246Z,75.14
2024-02-18T21:24:17.103Z,75.06
2024-02-18T21:26:44.878Z,75.17
2024-02-18T21:29:12.614Z,75.02
2024-02-18T21:31:41.768Z,75.08
2024-02-18T21:34:12.469Z,74.76
2024-02-18T21:36:43.447Z,74.88
2024-02-18T21:39:11.448Z,74.95
2024-02-18T21:41:45.394Z,74.93
2024-02-18T21:44:13.156Z,75.20
2024-02-18T21:46:47.001Z,75.23
2024-02-18T21:49:15.107Z,75.01
2024-02-18T21:51:43.115Z,75.20
2024-02-18T21:54:11.074Z,75.07
2024-02-18T21:56:38.833Z,74.72
2024-02-18T21:59:06.599Z,74.96
2024-02-18T22:01:36.771Z,74.96
2024-02-18T22:04:06.396Z,74.86
2024-02-18T22:06:34.360Z,74.89
2024-02-18T22:09:02.200Z,74.82
2024-02-18T22:11:33.889Z,74.65
2024-02-18T22:14:02.851Z,74.90
2024-02-18T22:16:30.621Z,74.77
2024-02-18T22:18:58.481Z,74.69
2024-02-18T22:21:27.738Z,74.86
2024-02-18T22:23:55.511Z,74.67
2024-02-18T22:26:23.254Z,74.65
2024-02-18T22:28:51.035Z,74.60
2024-02-18T22:31:18.829Z,74.75
2024-02-18T22:33:46.784Z,74.71
2024-02-18T22:36:14.586Z,74.79
2024-02-18T22:38:43.737Z,74.71
2024-02-18T22:41:11.487Z,74.72
2024-02-18T22:43:39.278Z,74.41
2024-02-18T22:46:07.167Z,74.36
2024-02-18T22:48:35.630Z,74.36
2024-02-18T22:51:03.422Z,74.32
2024-02-18T22:53:31.177Z,74.10
2024-02-18T22:56:00.323Z,74.32
2024-02-18T22:58:28.111Z,74.44
2024-02-18T23:00:55.908Z,74.26
2024-02-18T23:03:23.780Z,74.37
2024-02-18T23:05:51.701Z,74.18
2024-02-18T23:08:19.503Z,74.34
2024-02-18T23:10:47.347Z,74.33
2024-02-18T23:13:16.585Z,74.42
2024-02-18T23:15:44.606Z,74.08
2024-02-18T23:18:12.645Z,74.53
2024-02-18T23:20:40.653Z,74.60
2024-02-18T23:23:08.713Z,74.62
2024-02-18T23:25:36.581Z,74.77
2024-02-18T23:28:04.810Z,74.93
2024-02-18T23:30:34.105Z,74.80
2024-02-18T23:33:02.008Z,74.92
2024-02-18T23:35:29.785Z,75.04
2024-02-18T23:37:57.534Z,74.84
2024-02-18T23:40:25.468Z,74.86
2024-02-18T23:42:53.345Z,75.19
2024-02-18T23:45:21.109Z,74.54
2024-02-18T23:47:50.282Z,74.46
2024-02-18T23:50:18.104Z,74.56
2024-02-18T23:52:45.919Z,74.46
2024-02-18T23:55:14.231Z,74.39
2024-02-18T23:57:42.205Z,74.48
